sensor_id;sensor_type;location;lat;lon;timestamp;temperature;humidity
38936;DHT22;25541;47.458;9.644;2022-11-27T05:02:57;0.90;99.90
38936;DHT22;25541;47.458;9.644;2022-11-27T05:05:22;0.80;99.90
38936;DHT22;25541;47.458;9.644;2022-11-27T05:07:48;0.80;99.90
38936;DHT22;25541;47.458;9.644;2022-11-27T05:10:14;0.80;99.90
38936;DHT22;25541;47.458;9.644;2022-11-27T05:12:39;0.80;99.90
38936;DHT22;25541;47.458;9.644;2022-11-27T05:15:05;0.90;99.90
38936;DHT22;25541;47.458;9.644;2022-11-27T05:17:31;0.90;99.90
38936;DHT22;25541;47.458;9.644;2022-11-27T05:19:57;0.90;99.90
38936;DHT22;25541;47.458;9.644;2022-11-27T05:22:23;0.90;99.90
38936;DHT22;25541;47.458;9.644;2022-11-27T05:24:48;0.90;99.90
38936;DHT22;25541;47.458;9.644;2022-11-27T05:27:14;0.90;99.90
38936;DHT22;25541;47.458;9.644;2022-11-27T05:29:40;0.80;99.90
38936;DHT22;25541;47.458;9.644;2022-11-27T05:32:06;0.80;99.90
38936;DHT22;25541;47.458;9.644;2022-11-27T05:34:31;0.70;99.90
38936;DHT22;25541;47.458;9.644;2022-11-27T05:36:57;0.70;99.90
38936;DHT22;25541;47.458;9.644;2022-11-27T05:39:23;0.70;99.90
38936;DHT22;25541;47.458;9.644;2022-11-27T05:41:48;0.70;99.90
38936;DHT22;25541;47.458;9.644;2022-11-27T05:44:14;0.70;99.90
38936;DHT22;25541;47.458;9.644;2022-11-27T05:46:41;0.70;99.90
38936;DHT22;25541;47.458;9.644;2022-11-27T05:49:12;0.70;99.90
38936;DHT22;25541;47.458;9.644;2022-11-27T05:51:38;0.70;99.90
38936;DHT22;25541;47.458;9.644;2022-11-27T05:54:04;0.70;99.90
38936;DHT22;25541;47.458;9.644;2022-11-27T05:56:30;0.70;99.90
38936;DHT22;25541;47.458;9.644;2022-11-27T05:58:55;0.70;99.90
38936;DHT22;25541;47.458;9.644;2022-11-27T06:01:21;0.80;99.90
38936;DHT22;25541;47.458;9.644;2022-11-27T06:03:47;0.80;99.90
38936;DHT22;25541;47.458;9.644;2022-11-27T06:06:18;0.80;99.90
38936;DHT22;25541;47.458;9.644;2022-11-27T06:08:44;0.80;99.90
38936;DHT22;25541;47.458;9.644;2022-11-27T06:11:15;0.80;99.90
38936;DHT22;25541;47.458;9.644;2022-11-27T06:13:42;0.70;99.90
38936;DHT22;25541;47.458;9.644;2022-11-27T06:16:11;0.70;99.90
38936;DHT22;25541;47.458;9.644;2022-11-27T06:18:37;0.60;99.90
38936;DHT22;25541;47.458;9.644;2022-11-27T06:21:11;0.60;99.90
38936;DHT22;25541;47.458;9.644;2022-11-27T06:23:37;0.60;99.90
38936;DHT22;25541;47.458;9.644;2022-11-27T06:28:35;0.60;99.90
38936;DHT22;25541;47.458;9.644;2022-11-27T06:31:14;0.60;99.90
38936;DHT22;25541;47.458;9.644;2022-11-27T06:33:40;0.60;99.90
38936;DHT22;25541;47.458;9.644;2022-11-27T06:36:06;0.50;99.90
38936;DHT22;25541;47.458;9.644;2022-11-27T06:38:33;0.50;99.90
38936;DHT22;25541;47.458;9.644;2022-11-27T06:41:10;0.50;99.90
38936;DHT22;25541;47.458;9.644;2022-11-27T06:43:37;0.50;99.90
38936;DHT22;25541;47.458;9.644;2022-11-27T06:46:04;0.50;99.90
38936;DHT22;25541;47.458;9.644;2022-11-27T06:48:30;0.50;99.90
38936;DHT22;25541;47.458;9.644;2022-11-27T06:51:04;0.60;99.90
38936;DHT22;25541;47.458;9.644;2022-11-27T06:53:31;0.60;99.90
38936;DHT22;25541;47.458;9.644;2022-11-27T06:55:57;0.60;99.90
38936;DHT22;25541;47.458;9.644;2022-11-27T06:58:23;0.70;99.90
38936;DHT22;25541;47.458;9.644;2022-11-27T07:00:49;0.80;99.90
38936;DHT22;25541;47.458;9.644;2022-11-27T07:03:15;0.90;99.90
38936;DHT22;25541;47.458;9.644;2022-11-27T07:05:40;1.00;99.90
38936;DHT22;25541;47.458;9.644;2022-11-27T07:08:06;1.00;99.00
38936;DHT22;25541;47.458;9.644;2022-11-27T07:10:33;1.10;99.10
38936;DHT22;25541;47.458;9.644;2022-11-27T07:12:59;1.20;98.50
38936;DHT22;25541;47.458;9.644;2022-11-27T07:15:25;1.30;98.60
38936;DHT22;25541;47.458;9.644;2022-11-27T07:17:51;1.60;98.90
38936;DHT22;25541;47.458;9.644;2022-11-27T07:20:17;2.30;97.50
38936;DHT22;25541;47.458;9.644;2022-11-27T07:22:42;3.50;95.40
38936;DHT22;25541;47.458;9.644;2022-11-27T07:25:08;4.60;92.30
38936;DHT22;25541;47.458;9.644;2022-11-27T07:27:34;5.50;89.80
38936;DHT22;25541;47.458;9.644;2022-11-27T07:29:59;6.20;83.10
38936;DHT22;25541;47.458;9.644;2022-11-27T07:32:25;6.70;81.50
38936;DHT22;25541;47.458;9.644;2022-11-27T07:34:51;7.00;79.40
38936;DHT22;25541;47.458;9.644;2022-11-27T07:37:16;7.50;75.50
38936;DHT22;25541;47.458;9.644;2022-11-27T07:39:42;7.40;74.10
38936;DHT22;25541;47.458;9.644;2022-11-27T07:42:07;7.50;75.20
38936;DHT22;25541;47.458;9.644;2022-11-27T07:44:33;7.50;76.10
38936;DHT22;25541;47.458;9.644;2022-11-27T07:46:59;7.40;74.30
38936;DHT22;25541;47.458;9.644;2022-11-27T07:49:25;7.10;75.90
38936;DHT22;25541;47.458;9.644;2022-11-27T07:51:50;6.80;77.50
38936;DHT22;25541;47.458;9.644;2022-11-27T07:54:16;6.60;78.20
38936;DHT22;25541;47.458;9.644;2022-11-27T07:56:41;6.30;79.00
38936;DHT22;25541;47.458;9.644;2022-11-27T07:59:07;6.30;79.40
38936;DHT22;25541;47.458;9.644;2022-11-27T08:01:33;6.20;80.10
38936;DHT22;25541;47.458;9.644;2022-11-27T08:03:58;6.00;80.20
38936;DHT22;25541;47.458;9.644;2022-11-27T08:06:25;5.80;81.20
38936;DHT22;25541;47.458;9.644;2022-11-27T08:08:52;5.80;82.00
38936;DHT22;25541;47.458;9.644;2022-11-27T08:11:28;5.70;82.40
38936;DHT22;25541;47.458;9.644;2022-11-27T08:13:57;5.70;82.70
38936;DHT22;25541;47.458;9.644;2022-11-27T08:16:25;5.70;82.70
38936;DHT22;25541;47.458;9.644;2022-11-27T08:18:50;5.70;83.10
38936;DHT22;25541;47.458;9.644;2022-11-27T08:21:17;5.90;83.10
38936;DHT22;25541;47.458;9.644;2022-11-27T08:23:43;7.00;81.30
38936;DHT22;25541;47.458;9.644;2022-11-27T08:26:10;8.70;76.40
38936;DHT22;25541;47.458;9.644;2022-11-27T08:28:36;10.80;69.90
38936;DHT22;25541;47.458;9.644;2022-11-27T08:31:04;11.10;64.30
38936;DHT22;25541;47.458;9.644;2022-11-27T08:33:31;10.50;66.90
38936;DHT22;25541;47.458;9.644;2022-11-27T08:35:57;10.00;66.90
38936;DHT22;25541;47.458;9.644;2022-11-27T08:38:23;9.70;67.80
38936;DHT22;25541;47.458;9.644;2022-11-27T08:40:56;9.70;68.80
38936;DHT22;25541;47.458;9.644;2022-11-27T08:43:23;9.80;67.80
38936;DHT22;25541;47.458;9.644;2022-11-27T08:45:49;9.60;67.80
38936;DHT22;25541;47.458;9.644;2022-11-27T08:48:15;8.90;69.40
38936;DHT22;25541;47.458;9.644;2022-11-27T08:50:41;8.60;70.10
38936;DHT22;25541;47.458;9.644;2022-11-27T08:53:07;8.20;71.60
38936;DHT22;25541;47.458;9.644;2022-11-27T08:55:33;8.00;72.90
38936;DHT22;25541;47.458;9.644;2022-11-27T08:57:58;7.50;73.10
38936;DHT22;25541;47.458;9.644;2022-11-27T09:00:24;7.10;73.50
38936;DHT22;25541;47.458;9.644;2022-11-27T09:02:50;6.70;74.30
38936;DHT22;25541;47.458;9.644;2022-11-27T09:05:16;6.30;75.40
38936;DHT22;25541;47.458;9.644;2022-11-27T09:07:42;6.20;77.10
38936;DHT22;25541;47.458;9.644;2022-11-27T09:10:08;6.30;77.60
38936;DHT22;25541;47.458;9.644;2022-11-27T09:12:34;6.60;76.90
38936;DHT22;25541;47.458;9.644;2022-11-27T09:15:00;6.90;75.10
38936;DHT22;25541;47.458;9.644;2022-11-27T09:17:26;7.00;74.80
38936;DHT22;25541;47.458;9.644;2022-11-27T09:19:51;7.20;74.80
38936;DHT22;25541;47.458;9.644;2022-11-27T09:22:17;7.40;74.10
38936;DHT22;25541;47.458;9.644;2022-11-27T09:24:43;7.80;73.20
38936;DHT22;25541;47.458;9.644;2022-11-27T09:27:09;8.90;70.70
38936;DHT22;25541;47.458;9.644;2022-11-27T09:29:35;9.90;68.30
38936;DHT22;25541;47.458;9.644;2022-11-27T09:32:00;10.20;66.40
38936;DHT22;25541;47.458;9.644;2022-11-27T09:34:26;10.40;67.80
38936;DHT22;25541;47.458;9.644;2022-11-27T09:36:52;10.50;68.90
38936;DHT22;25541;47.458;9.644;2022-11-27T09:39:18;12.40;66.10
38936;DHT22;25541;47.458;9.644;2022-11-27T09:42:35;13.80;60.50
38936;DHT22;25541;47.458;9.644;2022-11-27T09:44:59;14.20;58.90
38936;DHT22;25541;47.458;9.644;2022-11-27T09:47:37;14.30;58.70
38936;DHT22;25541;47.458;9.644;2022-11-27T09:50:15;14.30;58.30
38936;DHT22;25541;47.458;9.644;2022-11-27T09:52:46;13.80;59.00
38936;DHT22;25541;47.458;9.644;2022-11-27T09:55:15;13.50;60.50
38936;DHT22;25541;47.458;9.644;2022-11-27T09:57:49;12.40;61.70
38936;DHT22;25541;47.458;9.644;2022-11-27T10:00:18;11.60;65.10
38936;DHT22;25541;47.458;9.644;2022-11-27T10:02:44;10.90;66.90
38936;DHT22;25541;47.458;9.644;2022-11-27T10:05:22;10.20;68.60
38936;DHT22;25541;47.458;9.644;2022-11-27T10:13:58;9.30;72.60
38936;DHT22;25541;47.458;9.644;2022-11-27T10:27:22;8.10;77.00
38936;DHT22;25541;47.458;9.644;2022-11-27T10:29:52;8.10;77.00
38936;DHT22;25541;47.458;9.644;2022-11-27T10:32:21;8.00;76.80
38936;DHT22;25541;47.458;9.644;2022-11-27T10:34:55;7.90;77.40
38936;DHT22;25541;47.458;9.644;2022-11-27T10:37:26;7.70;78.50
38936;DHT22;25541;47.458;9.644;2022-11-27T10:39:55;7.50;79.00
38936;DHT22;25541;47.458;9.644;2022-11-27T10:42:50;7.40;79.80
38936;DHT22;25541;47.458;9.644;2022-11-27T10:45:38;7.10;80.90
38936;DHT22;25541;47.458;9.644;2022-11-27T10:48:05;7.00;82.20
38936;DHT22;25541;47.458;9.644;2022-11-27T10:50:31;6.90;82.70
38936;DHT22;25541;47.458;9.644;2022-11-27T10:53:25;6.90;82.80
38936;DHT22;25541;47.458;9.644;2022-11-27T11:01:07;6.90;83.50
38936;DHT22;25541;47.458;9.644;2022-11-27T11:03:33;6.90;83.70
38936;DHT22;25541;47.458;9.644;2022-11-27T11:06:01;6.80;83.70
38936;DHT22;25541;47.458;9.644;2022-11-27T11:08:30;6.80;83.60
38936;DHT22;25541;47.458;9.644;2022-11-27T11:13:29;6.90;83.30
38936;DHT22;25541;47.458;9.644;2022-11-27T11:16:04;6.90;83.20
38936;DHT22;25541;47.458;9.644;2022-11-27T11:18:41;6.90;82.20
38936;DHT22;25541;47.458;9.644;2022-11-27T11:21:15;6.80;82.80
38936;DHT22;25541;47.458;9.644;2022-11-27T11:23:41;6.80;83.70
38936;DHT22;25541;47.458;9.644;2022-11-27T11:28:51;6.90;84.30
38936;DHT22;25541;47.458;9.644;2022-11-27T11:31:20;6.90;83.20
38936;DHT22;25541;47.458;9.644;2022-11-27T11:33:56;6.90;81.60
38936;DHT22;25541;47.458;9.644;2022-11-27T11:36:23;6.90;80.90
38936;DHT22;25541;47.458;9.644;2022-11-27T11:38:50;6.90;81.50
38936;DHT22;25541;47.458;9.644;2022-11-27T11:41:17;6.90;80.50
38936;DHT22;25541;47.458;9.644;2022-11-27T11:43:55;6.90;79.60
38936;DHT22;25541;47.458;9.644;2022-11-27T11:46:27;6.90;83.40
38936;DHT22;25541;47.458;9.644;2022-11-27T11:48:59;7.00;81.50
38936;DHT22;25541;47.458;9.644;2022-11-27T11:52:39;7.00;80.20
38936;DHT22;25541;47.458;9.644;2022-11-27T11:54:52;7.10;79.00
38936;DHT22;25541;47.458;9.644;2022-11-27T12:00:24;7.30;78.00
38936;DHT22;25541;47.458;9.644;2022-11-27T12:27:20;7.50;73.90
38936;DHT22;25541;47.458;9.644;2022-11-27T12:29:57;7.50;73.90
38936;DHT22;25541;47.458;9.644;2022-11-27T12:38:28;7.50;73.40
38936;DHT22;25541;47.458;9.644;2022-11-27T12:44:00;7.40;74.80
38936;DHT22;25541;47.458;9.644;2022-11-27T12:47:51;7.40;73.60
38936;DHT22;25541;47.458;9.644;2022-11-27T12:49:48;7.40;74.90
38936;DHT22;25541;47.458;9.644;2022-11-27T12:52:28;7.40;75.20
38936;DHT22;25541;47.458;9.644;2022-11-27T12:55:27;7.20;73.40
38936;DHT22;25541;47.458;9.644;2022-11-27T12:58:05;7.30;74.20
38936;DHT22;25541;47.458;9.644;2022-11-27T13:00:35;7.30;75.50
38936;DHT22;25541;47.458;9.644;2022-11-27T13:03:04;7.30;75.50
38936;DHT22;25541;47.458;9.644;2022-11-27T13:05:43;7.30;76.60
38936;DHT22;25541;47.458;9.644;2022-11-27T13:08:28;7.30;74.50
38936;DHT22;25541;47.458;9.644;2022-11-27T13:11:07;7.20;75.80
38936;DHT22;25541;47.458;9.644;2022-11-27T13:13:47;7.20;76.20
38936;DHT22;25541;47.458;9.644;2022-11-27T13:16:22;7.10;76.30
38936;DHT22;25541;47.458;9.644;2022-11-27T13:19:14;7.20;76.90
38936;DHT22;25541;47.458;9.644;2022-11-27T13:21:42;7.20;77.50
38936;DHT22;25541;47.458;9.644;2022-11-27T13:24:11;7.30;76.70
38936;DHT22;25541;47.458;9.644;2022-11-27T13:31:59;7.40;80.20
38936;DHT22;25541;47.458;9.644;2022-11-27T13:34:28;7.40;80.80
38936;DHT22;25541;47.458;9.644;2022-11-27T13:37:00;7.40;80.80
38936;DHT22;25541;47.458;9.644;2022-11-27T13:39:38;7.40;81.50
38936;DHT22;25541;47.458;9.644;2022-11-27T13:42:14;7.40;81.70
38936;DHT22;25541;47.458;9.644;2022-11-27T13:44:50;7.40;81.50
38936;DHT22;25541;47.458;9.644;2022-11-27T13:47:17;7.40;81.20
38936;DHT22;25541;47.458;9.644;2022-11-27T13:49:44;7.30;81.10
38936;DHT22;25541;47.458;9.644;2022-11-27T13:52:18;7.30;81.10
38936;DHT22;25541;47.458;9.644;2022-11-27T13:54:53;7.30;81.70
38936;DHT22;25541;47.458;9.644;2022-11-27T13:57:20;7.30;82.40
38936;DHT22;25541;47.458;9.644;2022-11-27T14:00:03;7.20;82.80
38936;DHT22;25541;47.458;9.644;2022-11-27T14:02:49;7.20;83.30
38936;DHT22;25541;47.458;9.644;2022-11-27T14:05:17;7.20;84.20
38936;DHT22;25541;47.458;9.644;2022-11-27T14:07:49;7.20;84.60
38936;DHT22;25541;47.458;9.644;2022-11-27T14:10:20;7.20;84.70
38936;DHT22;25541;47.458;9.644;2022-11-27T14:15:24;7.20;85.90
38936;DHT22;25541;47.458;9.644;2022-11-27T14:17:53;7.10;85.90
38936;DHT22;25541;47.458;9.644;2022-11-27T14:20:31;7.10;86.30
38936;DHT22;25541;47.458;9.644;2022-11-27T14:23:00;7.10;86.10
38936;DHT22;25541;47.458;9.644;2022-11-27T14:25:31;7.10;86.60
38936;DHT22;25541;47.458;9.644;2022-11-27T14:30:38;7.10;86.50
38936;DHT22;25541;47.458;9.644;2022-11-27T14:33:13;7.00;86.60
38936;DHT22;25541;47.458;9.644;2022-11-27T14:35:40;7.00;86.90
38936;DHT22;25541;47.458;9.644;2022-11-27T14:38:09;7.00;86.90
38936;DHT22;25541;47.458;9.644;2022-11-27T14:40:36;7.00;86.60
38936;DHT22;25541;47.458;9.644;2022-11-27T14:43:28;7.10;86.80
38936;DHT22;25541;47.458;9.644;2022-11-27T14:45:58;7.10;86.40
38936;DHT22;25541;47.458;9.644;2022-11-27T14:48:45;7.10;86.30
38936;DHT22;25541;47.458;9.644;2022-11-27T14:51:20;7.10;86.20
38936;DHT22;25541;47.458;9.644;2022-11-27T14:53:49;7.10;86.20
38936;DHT22;25541;47.458;9.644;2022-11-27T14:56:16;7.00;86.50
38936;DHT22;25541;47.458;9.644;2022-11-27T14:58:50;7.00;86.90
38936;DHT22;25541;47.458;9.644;2022-11-27T15:01:25;6.80;87.30
38936;DHT22;25541;47.458;9.644;2022-11-27T15:03:59;6.70;87.80
38936;DHT22;25541;47.458;9.644;2022-11-27T15:06:28;6.70;88.20
38936;DHT22;25541;47.458;9.644;2022-11-27T15:08:55;6.60;88.50
38936;DHT22;25541;47.458;9.644;2022-11-27T15:11:22;6.50;88.90
38936;DHT22;25541;47.458;9.644;2022-11-27T15:13:54;6.50;89.00
38936;DHT22;25541;47.458;9.644;2022-11-27T15:16:24;6.40;89.50
38936;DHT22;25541;47.458;9.644;2022-11-27T15:18:59;6.30;89.80
38936;DHT22;25541;47.458;9.644;2022-11-27T15:21:27;6.20;90.10
38936;DHT22;25541;47.458;9.644;2022-11-27T15:23:55;6.20;90.00
38936;DHT22;25541;47.458;9.644;2022-11-27T15:26:35;6.20;90.00
38936;DHT22;25541;47.458;9.644;2022-11-27T15:30:09;6.10;90.20
38936;DHT22;25541;47.458;9.644;2022-11-27T15:32:22;6.10;90.50
38936;DHT22;25541;47.458;9.644;2022-11-27T15:34:50;6.00;90.80
38936;DHT22;25541;47.458;9.644;2022-11-27T15:37:28;6.00;90.90
38936;DHT22;25541;47.458;9.644;2022-11-27T15:39:59;6.00;90.90
38936;DHT22;25541;47.458;9.644;2022-11-27T15:42:31;6.00;91.00
38936;DHT22;25541;47.458;9.644;2022-11-27T15:44:57;5.90;91.10
38936;DHT22;25541;47.458;9.644;2022-11-27T15:47:36;5.90;91.00
38936;DHT22;25541;47.458;9.644;2022-11-27T15:50:03;5.90;90.90
38936;DHT22;25541;47.458;9.644;2022-11-27T15:52:30;5.90;90.90
38936;DHT22;25541;47.458;9.644;2022-11-27T15:54:55;5.80;90.30
38936;DHT22;25541;47.458;9.644;2022-11-27T15:57:22;5.80;90.50
38936;DHT22;25541;47.458;9.644;2022-11-27T15:59:48;5.80;90.70
38936;DHT22;25541;47.458;9.644;2022-11-27T16:02:14;5.70;90.90
38936;DHT22;25541;47.458;9.644;2022-11-27T16:04:40;5.80;91.10
38936;DHT22;25541;47.458;9.644;2022-11-27T16:07:06;5.80;91.30
38936;DHT22;25541;47.458;9.644;2022-11-27T16:09:33;5.70;91.40
38936;DHT22;25541;47.458;9.644;2022-11-27T16:11:58;5.70;91.40
38936;DHT22;25541;47.458;9.644;2022-11-27T16:14:24;5.70;91.60
38936;DHT22;25541;47.458;9.644;2022-11-27T16:16:50;5.60;91.90
38936;DHT22;25541;47.458;9.644;2022-11-27T16:19:15;5.60;91.80
38936;DHT22;25541;47.458;9.644;2022-11-27T16:21:41;5.70;91.90
38936;DHT22;25541;47.458;9.644;2022-11-27T16:24:11;5.60;92.10
38936;DHT22;25541;47.458;9.644;2022-11-27T16:26:37;5.60;92.20
38936;DHT22;25541;47.458;9.644;2022-11-27T16:29:07;5.60;92.40
38936;DHT22;25541;47.458;9.644;2022-11-27T16:31:34;5.60;92.50
38936;DHT22;25541;47.458;9.644;2022-11-27T16:33:59;5.60;92.40
38936;DHT22;25541;47.458;9.644;2022-11-27T16:36:27;5.60;92.60
38936;DHT22;25541;47.458;9.644;2022-11-27T16:38:54;5.70;92.50
38936;DHT22;25541;47.458;9.644;2022-11-27T16:41:21;5.60;92.50
38936;DHT22;25541;47.458;9.644;2022-11-27T16:43:50;5.70;92.50
38936;DHT22;25541;47.458;9.644;2022-11-27T16:46:27;5.80;92.50
38936;DHT22;25541;47.458;9.644;2022-11-27T16:48:54;5.80;92.40
38936;DHT22;25541;47.458;9.644;2022-11-27T16:51:23;5.80;92.40
38936;DHT22;25541;47.458;9.644;2022-11-27T16:53:53;5.80;92.40
38936;DHT22;25541;47.458;9.644;2022-11-27T16:56:23;5.80;92.60
38936;DHT22;25541;47.458;9.644;2022-11-27T16:58:49;5.80;92.50
38936;DHT22;25541;47.458;9.644;2022-11-27T17:01:21;5.80;92.40
38936;DHT22;25541;47.458;9.644;2022-11-27T17:03:47;5.80;92.50
38936;DHT22;25541;47.458;9.644;2022-11-27T17:06:21;5.80;93.00
38936;DHT22;25541;47.458;9.644;2022-11-27T17:08:48;5.70;92.60
38936;DHT22;25541;47.458;9.644;2022-11-27T17:11:16;5.70;92.70
38936;DHT22;25541;47.458;9.644;2022-11-27T17:13:42;5.70;92.90
38936;DHT22;25541;47.458;9.644;2022-11-27T17:16:09;5.70;93.40
38936;DHT22;25541;47.458;9.644;2022-11-27T17:18:36;5.70;93.30
38936;DHT22;25541;47.458;9.644;2022-11-27T17:21:05;5.80;93.20
38936;DHT22;25541;47.458;9.644;2022-11-27T17:23:32;5.80;93.10
38936;DHT22;25541;47.458;9.644;2022-11-27T17:26:04;5.80;93.30
38936;DHT22;25541;47.458;9.644;2022-11-27T17:28:30;5.70;93.40
38936;DHT22;25541;47.458;9.644;2022-11-27T17:30:56;5.80;93.40
38936;DHT22;25541;47.458;9.644;2022-11-27T17:33:21;5.80;93.40
38936;DHT22;25541;47.458;9.644;2022-11-27T17:35:47;5.80;93.50
38936;DHT22;25541;47.458;9.644;2022-11-27T17:38:13;5.80;93.60
38936;DHT22;25541;47.458;9.644;2022-11-27T17:40:38;5.80;93.90
38936;DHT22;25541;47.458;9.644;2022-11-27T17:43:04;5.80;93.90
38936;DHT22;25541;47.458;9.644;2022-11-27T17:45:30;5.80;94.00
38936;DHT22;25541;47.458;9.644;2022-11-27T17:47:55;5.80;93.90
38936;DHT22;25541;47.458;9.644;2022-11-27T17:50:21;5.80;93.80
38936;DHT22;25541;47.458;9.644;2022-11-27T17:52:47;5.90;93.40
38936;DHT22;25541;47.458;9.644;2022-11-27T17:55:12;5.90;92.90
38936;DHT22;25541;47.458;9.644;2022-11-27T17:57:38;5.90;92.80
38936;DHT22;25541;47.458;9.644;2022-11-27T18:00:04;5.90;93.00
38936;DHT22;25541;47.458;9.644;2022-11-27T18:02:30;5.90;93.10
38936;DHT22;25541;47.458;9.644;2022-11-27T18:04:55;6.00;93.00
38936;DHT22;25541;47.458;9.644;2022-11-27T18:07:21;6.00;92.80
38936;DHT22;25541;47.458;9.644;2022-11-27T18:09:47;6.10;92.50
38936;DHT22;25541;47.458;9.644;2022-11-27T18:12:14;6.10;92.60
38936;DHT22;25541;47.458;9.644;2022-11-27T18:14:40;6.10;92.50
38936;DHT22;25541;47.458;9.644;2022-11-27T18:17:05;6.10;92.40
38936;DHT22;25541;47.458;9.644;2022-11-27T18:19:31;6.10;92.40
38936;DHT22;25541;47.458;9.644;2022-11-27T18:22:02;6.10;92.30
38936;DHT22;25541;47.458;9.644;2022-11-27T18:24:28;6.10;92.30
38936;DHT22;25541;47.458;9.644;2022-11-27T18:26:54;6.20;92.20
38936;DHT22;25541;47.458;9.644;2022-11-27T18:29:20;6.20;92.10
38936;DHT22;25541;47.458;9.644;2022-11-27T18:31:46;6.20;92.20
38936;DHT22;25541;47.458;9.644;2022-11-27T18:34:12;6.20;92.10
38936;DHT22;25541;47.458;9.644;2022-11-27T18:36:38;6.10;92.10
38936;DHT22;25541;47.458;9.644;2022-11-27T18:39:03;6.10;92.20
38936;DHT22;25541;47.458;9.644;2022-11-27T18:41:30;6.10;92.20
38936;DHT22;25541;47.458;9.644;2022-11-27T18:43:57;6.20;92.10
38936;DHT22;25541;47.458;9.644;2022-11-27T18:46:22;6.20;92.10
38936;DHT22;25541;47.458;9.644;2022-11-27T18:48:48;6.20;92.20
38936;DHT22;25541;47.458;9.644;2022-11-27T18:51:20;6.20;92.50
38936;DHT22;25541;47.458;9.644;2022-11-27T18:53:46;6.20;92.30
38936;DHT22;25541;47.458;9.644;2022-11-27T18:56:18;6.20;92.30
38936;DHT22;25541;47.458;9.644;2022-11-27T18:58:44;6.20;92.40
38936;DHT22;25541;47.458;9.644;2022-11-27T19:01:14;6.20;92.30
38936;DHT22;25541;47.458;9.644;2022-11-27T19:03:40;6.30;92.30
38936;DHT22;25541;47.458;9.644;2022-11-27T19:06:07;6.30;92.30
38936;DHT22;25541;47.458;9.644;2022-11-27T19:08:34;6.30;92.40
38936;DHT22;25541;47.458;9.644;2022-11-27T19:11:01;6.30;92.40
38936;DHT22;25541;47.458;9.644;2022-11-27T19:13:28;6.20;92.50
38936;DHT22;25541;47.458;9.644;2022-11-27T19:16:04;6.20;92.60
38936;DHT22;25541;47.458;9.644;2022-11-27T19:18:30;6.10;92.60
38936;DHT22;25541;47.458;9.644;2022-11-27T19:20:55;6.10;92.90
38936;DHT22;25541;47.458;9.644;2022-11-27T19:23:21;6.00;93.00
38936;DHT22;25541;47.458;9.644;2022-11-27T19:25:47;6.00;93.20
38936;DHT22;25541;47.458;9.644;2022-11-27T19:28:13;6.00;93.10
38936;DHT22;25541;47.458;9.644;2022-11-27T19:30:41;5.90;92.90
38936;DHT22;25541;47.458;9.644;2022-11-27T19:33:07;6.00;92.70
38936;DHT22;25541;47.458;9.644;2022-11-27T19:35:34;5.90;92.60
38936;DHT22;25541;47.458;9.644;2022-11-27T19:38:00;6.00;92.60
38936;DHT22;25541;47.458;9.644;2022-11-27T19:40:27;6.00;92.00
38936;DHT22;25541;47.458;9.644;2022-11-27T19:42:53;6.00;91.80
38936;DHT22;25541;47.458;9.644;2022-11-27T19:45:21;5.90;91.80
38936;DHT22;25541;47.458;9.644;2022-11-27T19:47:47;5.90;92.30
38936;DHT22;25541;47.458;9.644;2022-11-27T19:50:13;5.90;92.60
38936;DHT22;25541;47.458;9.644;2022-11-27T19:52:39;5.90;92.70
38936;DHT22;25541;47.458;9.644;2022-11-27T19:55:05;5.90;92.60
38936;DHT22;25541;47.458;9.644;2022-11-27T19:57:31;6.00;92.60
38936;DHT22;25541;47.458;9.644;2022-11-27T19:59:57;6.00;92.70
38936;DHT22;25541;47.458;9.644;2022-11-27T20:02:22;6.00;92.80
38936;DHT22;25541;47.458;9.644;2022-11-27T20:04:48;6.00;92.80
38936;DHT22;25541;47.458;9.644;2022-11-27T20:07:14;6.10;92.90
38936;DHT22;25541;47.458;9.644;2022-11-27T20:09:39;6.10;92.90
38936;DHT22;25541;47.458;9.644;2022-11-27T20:12:05;6.10;93.00
38936;DHT22;25541;47.458;9.644;2022-11-27T20:14:31;6.10;93.10
38936;DHT22;25541;47.458;9.644;2022-11-27T20:16:57;6.10;93.10
38936;DHT22;25541;47.458;9.644;2022-11-27T20:19:22;6.10;93.10
38936;DHT22;25541;47.458;9.644;2022-11-27T20:21:48;6.10;93.20
38936;DHT22;25541;47.458;9.644;2022-11-27T20:24:14;6.10;93.20
38936;DHT22;25541;47.458;9.644;2022-11-27T20:26:40;6.10;93.30
38936;DHT22;25541;47.458;9.644;2022-11-27T20:29:05;6.10;93.30
38936;DHT22;25541;47.458;9.644;2022-11-27T20:31:33;6.00;93.30
38936;DHT22;25541;47.458;9.644;2022-11-27T20:34:01;6.00;93.40
38936;DHT22;25541;47.458;9.644;2022-11-27T20:36:30;6.00;93.50
38936;DHT22;25541;47.458;9.644;2022-11-27T20:38:57;6.00;93.60
38936;DHT22;25541;47.458;9.644;2022-11-27T20:41:24;6.00;93.60
38936;DHT22;25541;47.458;9.644;2022-11-27T20:43:55;6.00;93.60
38936;DHT22;25541;47.458;9.644;2022-11-27T20:46:21;6.00;93.70
38936;DHT22;25541;47.458;9.644;2022-11-27T20:48:49;6.00;93.80
38936;DHT22;25541;47.458;9.644;2022-11-27T20:51:17;6.00;93.70
38936;DHT22;25541;47.458;9.644;2022-11-27T20:53:45;6.00;93.80
38936;DHT22;25541;47.458;9.644;2022-11-27T20:56:13;6.00;93.70
38936;DHT22;25541;47.458;9.644;2022-11-27T20:58:41;6.00;93.70
38936;DHT22;25541;47.458;9.644;2022-11-27T21:03:39;5.90;93.90
38936;DHT22;25541;47.458;9.644;2022-11-27T21:06:04;5.90;94.00
38936;DHT22;25541;47.458;9.644;2022-11-27T21:08:30;5.80;94.10
38936;DHT22;25541;47.458;9.644;2022-11-27T21:10:56;5.80;94.30
38936;DHT22;25541;47.458;9.644;2022-11-27T21:13:22;5.80;94.30
38936;DHT22;25541;47.458;9.644;2022-11-27T21:15:48;5.70;94.30
38936;DHT22;25541;47.458;9.644;2022-11-27T21:18:14;5.70;94.30
38936;DHT22;25541;47.458;9.644;2022-11-27T21:20:41;5.70;94.40
38936;DHT22;25541;47.458;9.644;2022-11-27T21:23:06;5.60;94.40
38936;DHT22;25541;47.458;9.644;2022-11-27T21:25:32;5.60;94.30
38936;DHT22;25541;47.458;9.644;2022-11-27T21:27:58;5.60;94.30
38936;DHT22;25541;47.458;9.644;2022-11-27T21:30:24;5.60;94.40
38936;DHT22;25541;47.458;9.644;2022-11-27T21:32:50;5.60;94.30
38936;DHT22;25541;47.458;9.644;2022-11-27T21:35:15;5.50;94.40
38936;DHT22;25541;47.458;9.644;2022-11-27T21:37:41;5.50;94.40
38936;DHT22;25541;47.458;9.644;2022-11-27T21:40:08;5.50;94.30
38936;DHT22;25541;47.458;9.644;2022-11-27T21:42:34;5.50;94.30
38936;DHT22;25541;47.458;9.644;2022-11-27T21:45:00;5.50;94.40
38936;DHT22;25541;47.458;9.644;2022-11-27T21:47:25;5.50;94.50
38936;DHT22;25541;47.458;9.644;2022-11-27T21:49:51;5.40;94.50
38936;DHT22;25541;47.458;9.644;2022-11-27T21:52:17;5.40;94.50
38936;DHT22;25541;47.458;9.644;2022-11-27T21:54:43;5.40;94.70
38936;DHT22;25541;47.458;9.644;2022-11-27T21:57:08;5.40;94.60
38936;DHT22;25541;47.458;9.644;2022-11-27T21:59:34;5.30;94.70
38936;DHT22;25541;47.458;9.644;2022-11-27T22:01:59;5.30;94.80
38936;DHT22;25541;47.458;9.644;2022-11-27T22:04:25;5.20;94.90
38936;DHT22;25541;47.458;9.644;2022-11-27T22:06:51;5.20;95.30
38936;DHT22;25541;47.458;9.644;2022-11-27T22:09:18;5.10;95.30
38936;DHT22;25541;47.458;9.644;2022-11-27T22:11:45;5.10;95.30
38936;DHT22;25541;47.458;9.644;2022-11-27T22:14:12;5.20;95.30
38936;DHT22;25541;47.458;9.644;2022-11-27T22:16:38;5.20;95.20